Nichioh Maru — JD3267 — position and weather

sailwx.info

Track history (hours):
 
Tides and Currents Weather Stations Pressure Air Temp Water Temp Dewpoint Dewpoint Depression Visibility Wind Speed Wind Dir Waves Ship Positions

Nichioh Maru

Last reported at 2016-Apr-25 03:34 UTC. Time now 2016-Apr-29 04:05 UTC.
Position N 34°37' E 134°58'.

Length 170 m; draft 6.5 m.

Type: Cargo ship. MMSI: 431003232.

Date/timePositionNaut miles runAvg speedWind from/ knotsBaromVisibWave heightAir tempDewpointWater temp
2016-Apr-25 03:34N 34°37' E 134°58'1414.2
2016-Apr-25 02:33N 34°40' E 135°15'1 1.5
2016-Apr-25 01:33N 34°41' E 135°13'0 0.0
2016-Apr-25 00:33N 34°41' E 135°13'0 0.0
2016-Apr-24 23:33N 34°41' E 135°13'2 2.3
2016-Apr-24 22:33N 34°39' E 135°16'1313.3
2016-Apr-24 21:33N 34°28' E 135°07'1413.9
2016-Apr-24 20:33N 34°16' E 134°59'1414.6
2016-Apr-24 19:33N 34°01' E 134°59'175 6.2
2016-Apr-23 15:16N 34°32' E 138°27'5013.5
2016-Apr-23 11:32N 34°57' E 139°20'1414.3
2016-Apr-23 10:33N 35°03' E 139°36'1413.9
2016-Apr-23 09:33N 35°14' E 139°46'1212.2
2016-Apr-23 08:33N 35°26' E 139°45'4 4.3
2016-Apr-23 07:32N 35°30' E 139°46'0 0.0
2016-Apr-23 06:32N 35°30' E 139°46'0 0.0
2016-Apr-23 05:32N 35°30' E 139°46'0 0.0
2016-Apr-23 04:32N 35°30' E 139°46'0 0.0
2016-Apr-23 03:33N 35°30' E 139°46'6 5.9
2016-Apr-23 02:33N 35°25' E 139°46'8 8.1
2016-Apr-23 01:32N 35°19' E 139°39'0 0.0
2016-Apr-23 00:32N 35°19' E 139°39'0 0.0
2016-Apr-22 23:32N 35°19' E 139°39'0 0.0
2016-Apr-22 22:33N 35°19' E 139°39'8 7.8
2016-Apr-22 21:33N 35°14' E 139°47'1313.0
2016-Apr-22 20:33N 35°02' E 139°40'23714.8
2016-Apr-22 04:33N 34°10' E 134°59'1918.5
2016-Apr-22 03:33N 34°27' E 135°08'1413.9
2016-Apr-22 02:33N 34°41' E 135°14'0 0.1
2016-Apr-22 01:32N 34°41' E 135°13'0 0.0
2016-Apr-22 00:32N 34°41' E 135°13'0 0.0
2016-Apr-21 23:21N 34°41' E 135°13'2 2.3
2016-Apr-21 22:33N 34°40' E 135°15'3 2.6
2016-Apr-21 21:21N 34°37' E 135°17'0 0.0
2016-Apr-21 20:33N 34°37' E 135°17'0 0.0
2016-Apr-21 19:33N 34°37' E 135°17'0 0.0
2016-Apr-21 18:33N 34°37' E 135°17'0 0.0
2016-Apr-21 17:33N 34°37' E 135°17'0 0.1
2016-Apr-21 16:27N 34°37' E 135°17'0 0.1
2016-Apr-21 15:33N 34°37' E 135°17'0 0.1
2016-Apr-21 14:33N 34°37' E 135°17'0 0.0
2016-Apr-21 13:33N 34°37' E 135°17'0 0.0
2016-Apr-21 12:33N 34°37' E 135°17'0 0.0
2016-Apr-21 11:33N 34°37' E 135°17'0 0.0
2016-Apr-21 10:33N 34°37' E 135°17'0 0.0
2016-Apr-21 09:27N 34°37' E 135°17'0 0.0
2016-Apr-21 08:33N 34°37' E 135°17'0 0.0
2016-Apr-21 07:33N 34°37' E 135°17'1110.8
2016-Apr-21 06:33N 34°35' E 135°04'  
2016-Apr-18 02:31N 34°37' E 134°58'1414.9
2016-Apr-18 01:34N 34°39' E 135°16'2 2.0
2016-Apr-18 00:25N 34°41' E 135°13'0 0.0
2016-Apr-17 23:31N 34°41' E 135°13'2 2.3
2016-Apr-17 22:33N 34°39' E 135°16'1413.7
2016-Apr-17 21:33N 34°27' E 135°09'1716.7
2016-Apr-17 20:33N 34°12' E 134°60'222 6.7
2016-Apr-16 11:33N 34°56' E 139°24'1514.4
2016-Apr-16 10:30N 35°05' E 139°40'1213.1
2016-Apr-16 09:33N 35°16' E 139°46'1313.3
2016-Apr-16 08:33N 35°29' E 139°48'2 1.8
2016-Apr-16 07:31N 35°30' E 139°46'0 0.0
2016-Apr-16 06:31N 35°30' E 139°46'0 0.0
2016-Apr-16 05:31N 35°30' E 139°46'0 0.0
2016-Apr-16 04:31N 35°30' E 139°46'2 2.0
2016-Apr-16 03:33N 35°30' E 139°44'10 9.9
2016-Apr-16 02:33N 35°20' E 139°44'4 4.0
2016-Apr-16 01:34N 35°19' E 139°39'0 0.0
2016-Apr-16 00:34N 35°19' E 139°39'0 0.0
2016-Apr-15 23:34N 35°19' E 139°39'5 4.9
2016-Apr-15 22:34N 35°18' E 139°45'1211.7
2016-Apr-15 21:33N 35°06' E 139°45'8516.2
2016-Apr-15 16:19N 34°19' E 138°19'16614.1
2016-Apr-15 04:33N 34°16' E 134°59'  
Track history (hours):
 
Tides and Currents Weather Stations Pressure Air Temp Water Temp Dewpoint Dewpoint Depression Visibility Wind Speed Wind Dir Waves Ship Positions

Nichioh Maru

Last reported at 2016-Apr-25 03:34 UTC. Time now 2016-Apr-29 04:05 UTC.
Position N 34°37' E 134°58'.

Length 170 m; draft 6.5 m.

Type: Cargo ship. MMSI: 431003232.

Date/timePositionNaut miles runAvg speedWind from/ knotsBaromVisibWave heightAir tempDewpointWater temp
2016-Apr-25 03:34N 34°37' E 134°58'1414.2
2016-Apr-25 02:33N 34°40' E 135°15'1 1.5
2016-Apr-25 01:33N 34°41' E 135°13'0 0.0
2016-Apr-25 00:33N 34°41' E 135°13'0 0.0
2016-Apr-24 23:33N 34°41' E 135°13'2 2.3
2016-Apr-24 22:33N 34°39' E 135°16'1313.3
2016-Apr-24 21:33N 34°28' E 135°07'1413.9
2016-Apr-24 20:33N 34°16' E 134°59'1414.6
2016-Apr-24 19:33N 34°01' E 134°59'175 6.2
2016-Apr-23 15:16N 34°32' E 138°27'5013.5
2016-Apr-23 11:32N 34°57' E 139°20'1414.3
2016-Apr-23 10:33N 35°03' E 139°36'1413.9
2016-Apr-23 09:33N 35°14' E 139°46'1212.2
2016-Apr-23 08:33N 35°26' E 139°45'4 4.3
2016-Apr-23 07:32N 35°30' E 139°46'0 0.0
2016-Apr-23 06:32N 35°30' E 139°46'0 0.0
2016-Apr-23 05:32N 35°30' E 139°46'0 0.0
2016-Apr-23 04:32N 35°30' E 139°46'0 0.0
2016-Apr-23 03:33N 35°30' E 139°46'6 5.9
2016-Apr-23 02:33N 35°25' E 139°46'8 8.1
2016-Apr-23 01:32N 35°19' E 139°39'0 0.0
2016-Apr-23 00:32N 35°19' E 139°39'0 0.0
2016-Apr-22 23:32N 35°19' E 139°39'0 0.0
2016-Apr-22 22:33N 35°19' E 139°39'8 7.8
2016-Apr-22 21:33N 35°14' E 139°47'1313.0
2016-Apr-22 20:33N 35°02' E 139°40'23714.8
2016-Apr-22 04:33N 34°10' E 134°59'1918.5
2016-Apr-22 03:33N 34°27' E 135°08'1413.9
2016-Apr-22 02:33N 34°41' E 135°14'0 0.1
2016-Apr-22 01:32N 34°41' E 135°13'0 0.0
2016-Apr-22 00:32N 34°41' E 135°13'0 0.0
2016-Apr-21 23:21N 34°41' E 135°13'2 2.3
2016-Apr-21 22:33N 34°40' E 135°15'3 2.6
2016-Apr-21 21:21N 34°37' E 135°17'0 0.0
2016-Apr-21 20:33N 34°37' E 135°17'0 0.0
2016-Apr-21 19:33N 34°37' E 135°17'0 0.0
2016-Apr-21 18:33N 34°37' E 135°17'0 0.0
2016-Apr-21 17:33N 34°37' E 135°17'0 0.1
2016-Apr-21 16:27N 34°37' E 135°17'0 0.1
2016-Apr-21 15:33N 34°37' E 135°17'0 0.1
2016-Apr-21 14:33N 34°37' E 135°17'0 0.0
2016-Apr-21 13:33N 34°37' E 135°17'0 0.0
2016-Apr-21 12:33N 34°37' E 135°17'0 0.0
2016-Apr-21 11:33N 34°37' E 135°17'0 0.0
2016-Apr-21 10:33N 34°37' E 135°17'0 0.0
2016-Apr-21 09:27N 34°37' E 135°17'0 0.0
2016-Apr-21 08:33N 34°37' E 135°17'0 0.0
2016-Apr-21 07:33N 34°37' E 135°17'1110.8
2016-Apr-21 06:33N 34°35' E 135°04'  
2016-Apr-18 02:31N 34°37' E 134°58'1414.9
2016-Apr-18 01:34N 34°39' E 135°16'2 2.0
2016-Apr-18 00:25N 34°41' E 135°13'0 0.0
2016-Apr-17 23:31N 34°41' E 135°13'2 2.3
2016-Apr-17 22:33N 34°39' E 135°16'1413.7
2016-Apr-17 21:33N 34°27' E 135°09'1716.7
2016-Apr-17 20:33N 34°12' E 134°60'222 6.7
2016-Apr-16 11:33N 34°56' E 139°24'1514.4
2016-Apr-16 10:30N 35°05' E 139°40'1213.1
2016-Apr-16 09:33N 35°16' E 139°46'1313.3
2016-Apr-16 08:33N 35°29' E 139°48'2 1.8
2016-Apr-16 07:31N 35°30' E 139°46'0 0.0
2016-Apr-16 06:31N 35°30' E 139°46'0 0.0
2016-Apr-16 05:31N 35°30' E 139°46'0 0.0
2016-Apr-16 04:31N 35°30' E 139°46'2 2.0
2016-Apr-16 03:33N 35°30' E 139°44'10 9.9
2016-Apr-16 02:33N 35°20' E 139°44'4 4.0
2016-Apr-16 01:34N 35°19' E 139°39'0 0.0
2016-Apr-16 00:34N 35°19' E 139°39'0 0.0
2016-Apr-15 23:34N 35°19' E 139°39'5 4.9
2016-Apr-15 22:34N 35°18' E 139°45'1211.7
2016-Apr-15 21:33N 35°06' E 139°45'8516.2
2016-Apr-15 16:19N 34°19' E 138°19'16614.1
2016-Apr-15 04:33N 34°16' E 134°59'  

Dump ship's entire track history